Group: AFO

Releases: 75.034 · Total size: 6,65 TB

First: 2003-06-26 · Last: 2026-09-05

By section: MP3/FLAC 74.049 (5,05 TB), TV/HD 795 (991,25 GB), Movies/HD 141 (595,31 GB), Movies/SD 42 (37,70 GB), TV/SD 7 (5,98 GB)

Release Section Group Size Files Date ↓
D.A.V.E._The_Drummer-Techno_Music_EP-(SUARA416)-WEB-2020-AFO MP3/FLAC AFO 41,74 MB 7 2021-01-17
CamiL-Black_Wall-(OLDSQL617)-WEB-2021-AFO MP3/FLAC AFO 42,09 MB 7 2021-01-17
Lorenzo_Chi-Data-(STATICS056)-SINGLE-WEB-2021-AFO MP3/FLAC AFO 11,42 MB 5 2021-01-17
VA-Yeiskomp_Leisurely_Trance_Jan_2020-(YL140)-WEB-2021-AFO MP3/FLAC AFO 248,83 MB 26 2021-01-17
Soulmade_(AR)-Reflections-(BC2345)-WEB-2021-AFO MP3/FLAC AFO 48,38 MB 7 2021-01-17
DJ_Geri-Mendenhall_Glacier-(CH261)-WEB-2021-AFO MP3/FLAC AFO 28,44 MB 6 2021-01-17
Gonza_Rodriguez-Puzzles-(3XA452)-WEB-2021-AFO MP3/FLAC AFO 45,77 MB 7 2021-01-17
Enchanted_Kids-Ritual-(BP9962021)-WEB-2021-AFO MP3/FLAC AFO 53,74 MB 7 2021-01-17
Alberto_Blanco-Multiverse-(BALKAN0663)-WEB-2021-AFO MP3/FLAC AFO 52,92 MB 8 2021-01-17
Indespa-Artificial_Life-(BQ474)-WEB-2021-AFO MP3/FLAC AFO 68,03 MB 9 2021-01-17
GRAZZE_and_Rauschhaus-Canacona-(SB186)-WEB-2021-AFO MP3/FLAC AFO 26,93 MB 5 2021-01-17
VA-2020_Essentials-(LOWPRESSINGS270)-WEB-2021-AFO MP3/FLAC AFO 127,10 MB 13 2021-01-17
Sandro_Mireno-In_Our_Memory-(ABSK082)-WEB-2021-AFO MP3/FLAC AFO 28,25 MB 7 2021-01-17
Sanani-Vesta-(NHW056)-WEB-2021-AFO MP3/FLAC AFO 24,93 MB 6 2021-01-17
Ciree-Beautiful_Moments-(SOL152)-WEB-2021-AFO MP3/FLAC AFO 30,38 MB 6 2021-01-17
Christian_Bachmann-Rotstein-(MANDEEP020)-SINGLE-WEB-2021-AFO MP3/FLAC AFO 11,70 MB 5 2021-01-17
George_Ellinas-Photon-(ELLINA018)-SINGLE-WEB-2021-AFO MP3/FLAC AFO 12,26 MB 5 2021-01-17
Martnello-Time_Will_Tell-(ECT192)-WEB-2021-AFO MP3/FLAC AFO 18,47 MB 6 2021-01-17
Adventure_Tale-Abyss__Aether-(PHWE289)-WEB-2021-AFO MP3/FLAC AFO 60,14 MB 8 2021-01-17
Katrin_Souza-Butterflies_in_My_Tummy-(D9R105)-WEB-2021-AFO MP3/FLAC AFO 42,15 MB 7 2021-01-17
Ilya_Gerus-Moscow_Underground-(MIST794)-WEB-2021-AFO MP3/FLAC AFO 42,20 MB 7 2021-01-17
Agustin_Paez_and_Geronimo_Nicolas-Vad_Hander-(MNL204)-WEB-2021-AFO MP3/FLAC AFO 48,09 MB 7 2021-01-17
VA-Anjunadeep_Explorations_16-(ANJDEE555D)-WEB-2021-AFO MP3/FLAC AFO 111,50 MB 16 2021-01-17
VA-Anjunabeats_Rising_Volume_1-WEB-2021-AFO MP3/FLAC AFO 51,12 MB 10 2021-01-17
Glacial_Storm-Dreamcatcher-(MCV106)-WEB-2021-AFO MP3/FLAC AFO 20,77 MB 6 2021-01-17
Skynet_and_Fekky-We_Are_More-(SR017)-SINGLE-WEB-2021-AFO MP3/FLAC AFO 17,75 MB 5 2021-01-17
Iant-Euphoria-(YV186)-WEB-2021-AFO MP3/FLAC AFO 20,54 MB 6 2021-01-17
Quantor-Interstellar-(HCR379D)-WEB-2021-AFO MP3/FLAC AFO 18,70 MB 5 2021-01-17
Digital_Energy-Starlight-(RDXS034)-WEB-2021-AFO MP3/FLAC AFO 20,21 MB 5 2021-01-17
Temple_One_pres_Cosmic_Mystery-Around_The_World-(BLS363)-WEB-2021-AFO MP3/FLAC AFO 19,17 MB 6 2021-01-17
Blind_Dreamer_and_iThur-Yibambe-(RDXF053)-WEB-2021-AFO MP3/FLAC AFO 21,60 MB 6 2021-01-17
Roman_Kandel-Carina-(DU056)-WEB-2021-AFO MP3/FLAC AFO 30,69 MB 6 2021-01-17
David_Di_Sabato-Long_Gone-(EUVIS039)-SINGLE-WEB-2021-AFO MP3/FLAC AFO 14,35 MB 5 2021-01-17
Symmetrik-The_Curse-(NKF041)-WEB-2021-AFO MP3/FLAC AFO 19,81 MB 6 2021-01-17
Nikolauss-A_Thousand_Words-(RGEN064)-SINGLE-WEB-2021-AFO MP3/FLAC AFO 12,94 MB 5 2021-01-17
Soarsonic-Astrophysics-(RDXM137)-WEB-2021-AFO MP3/FLAC AFO 19,86 MB 6 2021-01-17
Adam_Ellis_and_Michele_C-Dont_Disappear-(ITWT7670)-WEB-2021-AFO MP3/FLAC AFO 23,40 MB 6 2021-01-17
Rafael_Osmo-Allure-(PRLICD002)-WEB-2021-AFO MP3/FLAC AFO 191,68 MB 16 2021-01-16
Kenan_Savrun-Meliora-(ALM063)-WEB-2021-AFO MP3/FLAC AFO 43,34 MB 7 2021-01-16
Illaro-Novella-(YL139)-SINGLE-WEB-2021-AFO MP3/FLAC AFO 10,02 MB 5 2021-01-16
Ellie_Lawson-Becoming-(RNM275A)-WEB-2021-AFO MP3/FLAC AFO 255,00 MB 30 2021-01-15
GAR-Lofoten-(HIA100)-WEB-2021-AFO MP3/FLAC AFO 24,12 MB 6 2021-01-15
The_Irrepressibles-Let_Go_(Everybody_Move_Your_Body_Listen_to_Your_Heart)_(Tinlicker_Remix)-(OND20010)-WEB-2021-AFO MP3/FLAC AFO 22,69 MB 6 2021-01-15
Ruddaz-8YNTHW4VE-(MAGIC194)-WEB-2021-AFO MP3/FLAC AFO 19,66 MB 6 2021-01-14
VA-Parquet_Recordings__Retrospective_2020-(PARQUETCOMP033)-WEB-2021-AFO MP3/FLAC AFO 355,74 MB 29 2021-01-14
Morttagua-Plato-(TM090)-SINGLE-WEB-2020-AFO MP3/FLAC AFO 14,79 MB 5 2021-01-14
Leo_Van_Goch_and_The_Sixth_Sense_ft_Sevda_B-Blinding_Lights-(NIX190)-WEB-2020-AFO MP3/FLAC AFO 45,17 MB 8 2021-01-14
Elenski-Miracles_In_Hell-(YL138)-SINGLE-WEB-2021-AFO MP3/FLAC AFO 10,49 MB 5 2021-01-14
Syn_Drome-Mentally-(YV180)-SINGLE-WEB-2021-AFO MP3/FLAC AFO 14,56 MB 5 2021-01-14
Axel_Zambrano-Epic_Game_EP-(FG429)-WEB-2021-AFO MP3/FLAC AFO 46,42 MB 7 2021-01-14